Time;durP1;ratioP1;P1;durP2;ratioP2;P2;SDS_P1;SDS_P2;PMS_P1;PMS_P2;Temp;Humidity;BMP_temperature;BMP_pressure;BME280_temperature;BME280_humidity;BME280_pressure;Samples;Min_cycle;Max_cycle;Signal;HPM_P1;HPM_P2
2023/05/15 00:00:50;;;;;;;4.88;3.28;;;21.30;61.60;;;;;;5072155;28;20040;-66
2023/05/15 00:03:17;;;;;;;5.20;3.65;;;21.30;61.50;;;;;;5072386;28;20048;-66
2023/05/15 00:05:42;;;;;;;6.32;4.05;;;21.30;61.50;;;;;;5072589;28;20480;-65
2023/05/15 00:08:08;;;;;;;5.13;3.75;;;21.30;61.50;;;;;;5053618;28;20052;-66
2023/05/15 00:10:33;;;;;;;5.25;3.90;;;21.30;61.50;;;;;;5072722;28;20495;-66
2023/05/15 00:12:59;;;;;;;5.15;3.58;;;21.20;61.40;;;;;;5072468;28;20077;-66
2023/05/15 00:15:24;;;;;;;5.30;3.80;;;21.30;61.50;;;;;;5071482;28;20052;-65
2023/05/15 00:17:50;;;;;;;5.38;3.75;;;21.20;61.50;;;;;;5071095;28;20045;-66
2023/05/15 00:20:15;;;;;;;6.00;3.65;;;21.30;61.50;;;;;;5070852;28;20041;-66
2023/05/15 00:22:41;;;;;;;5.82;3.88;;;21.20;61.40;;;;;;5070234;28;20036;-66
2023/05/15 00:25:07;;;;;;;6.72;3.63;;;21.20;61.50;;;;;;5071757;28;20083;-66
2023/05/15 00:27:33;;;;;;;6.65;4.10;;;21.20;61.50;;;;;;5072331;28;20048;-67
2023/05/15 00:29:58;;;;;;;5.93;3.92;;;21.20;61.50;;;;;;5071680;28;20051;-66
2023/05/15 00:32:24;;;;;;;4.93;3.58;;;21.20;61.50;;;;;;5072229;28;20041;-66
2023/05/15 00:34:49;;;;;;;5.53;4.00;;;21.20;61.50;;;;;;5072487;28;20037;-67
2023/05/15 00:37:15;;;;;;;6.20;4.15;;;21.20;61.50;;;;;;5070048;28;20044;-67
2023/05/15 00:39:40;;;;;;;5.93;4.18;;;21.20;61.40;;;;;;5072247;28;20123;-66
2023/05/15 00:42:06;;;;;;;5.70;4.07;;;21.20;61.40;;;;;;5071888;28;20044;-67
2023/05/15 00:44:32;;;;;;;5.43;3.85;;;21.20;61.50;;;;;;5070719;28;20044;-67
2023/05/15 00:46:57;;;;;;;5.65;4.13;;;21.20;61.50;;;;;;5054253;28;20048;-66
2023/05/15 00:49:25;;;;;;;5.60;4.20;;;21.20;61.40;;;;;;5070991;28;20036;-66
2023/05/15 00:51:51;;;;;;;5.10;4.00;;;21.20;61.50;;;;;;5070849;28;20076;-66
2023/05/15 00:54:16;;;;;;;6.65;4.32;;;21.20;61.70;;;;;;5050641;28;20071;-66
2023/05/15 00:56:43;;;;;;;4.95;3.65;;;21.10;61.40;;;;;;5051491;28;20049;-66
2023/05/15 00:59:08;;;;;;;4.85;3.97;;;21.10;61.40;;;;;;5049098;28;20037;-66
2023/05/15 01:01:34;;;;;;;5.60;4.45;;;21.10;61.40;;;;;;5068774;28;20110;-67
2023/05/15 01:04:01;;;;;;;5.63;3.92;;;21.10;61.40;;;;;;5075205;28;20173;-67
2023/05/15 01:06:27;;;;;;;5.60;3.90;;;21.10;61.40;;;;;;5058231;28;20483;-66
2023/05/15 01:08:53;;;;;;;5.65;4.40;;;21.10;61.40;;;;;;5076049;28;20036;-66
2023/05/15 01:11:19;;;;;;;5.50;4.20;;;21.10;61.40;;;;;;5066449;28;20502;-66
2023/05/15 01:13:45;;;;;;;5.40;4.50;;;21.10;61.40;;;;;;5075879;28;20113;-66
2023/05/15 01:16:11;;;;;;;5.03;4.22;;;21.10;61.40;;;;;;5090614;28;20051;-66
2023/05/15 01:18:36;;;;;;;5.43;4.28;;;21.10;61.40;;;;;;5095095;28;20498;-66
2023/05/15 01:21:19;;;;;;;4.82;3.70;;;21.10;61.40;;;;;;5074706;28;20090;-66
2023/05/15 01:24:15;;;;;;;5.72;3.90;;;21.10;61.50;;;;;;5057850;28;20079;-66
2023/05/15 01:27:17;;;;;;;6.15;4.43;;;21.10;61.40;;;;;;5059548;28;20084;-66
2023/05/15 01:29:46;;;;;;;5.28;3.97;;;21.10;61.40;;;;;;5050421;28;20045;-66
2023/05/15 01:32:18;;;;;;;6.53;4.43;;;21.00;61.40;;;;;;5074324;28;20414;-67
2023/05/15 01:34:45;;;;;;;6.03;4.53;;;21.00;61.40;;;;;;5058543;28;20048;-66
2023/05/15 01:37:11;;;;;;;4.60;3.83;;;21.00;61.40;;;;;;5056526;28;20551;-66
2023/05/15 01:39:36;;;;;;;5.70;3.97;;;21.00;61.40;;;;;;5056165;28;20036;-66
2023/05/15 01:42:06;;;;;;;5.40;4.20;;;21.00;61.40;;;;;;5040937;28;20048;-66
2023/05/15 01:44:37;;;;;;;7.55;4.40;;;21.00;61.40;;;;;;5075530;28;20041;-66
2023/05/15 01:47:11;;;;;;;6.65;4.40;;;21.00;61.40;;;;;;5074521;28;20056;-66
2023/05/15 01:49:37;;;;;;;5.47;4.07;;;21.00;61.40;;;;;;5054081;28;20084;-66
2023/05/15 01:52:09;;;;;;;6.07;4.50;;;21.00;61.40;;;;;;5037321;28;20077;-66
2023/05/15 01:54:34;;;;;;;6.95;4.93;;;21.00;61.40;;;;;;5059522;28;20453;-67
2023/05/15 01:57:00;;;;;;;7.15;4.60;;;21.00;61.40;;;;;;5040682;28;20123;-66
2023/05/15 01:59:25;;;;;;;6.53;4.80;;;21.00;61.40;;;;;;5073329;28;20040;-67
2023/05/15 02:01:51;;;;;;;6.85;5.05;;;21.00;61.40;;;;;;5072266;28;20040;-66
2023/05/15 02:04:17;;;;;;;5.80;4.57;;;21.00;61.40;;;;;;5072238;28;20115;-66
2023/05/15 02:06:43;;;;;;;7.00;4.80;;;21.00;61.40;;;;;;5070334;28;20044;-66
2023/05/15 02:09:09;;;;;;;5.75;4.45;;;21.00;61.40;;;;;;5073843;28;20480;-67
2023/05/15 02:11:34;;;;;;;5.53;4.30;;;21.00;61.40;;;;;;5057200;28;20578;-66
2023/05/15 02:14:00;;;;;;;6.72;4.72;;;21.00;61.40;;;;;;5038101;28;20045;-67
2023/05/15 02:16:25;;;;;;;6.40;4.72;;;21.00;61.40;;;;;;5056702;28;20171;-67
2023/05/15 02:18:51;;;;;;;7.43;4.63;;;21.00;61.40;;;;;;5073637;28;20139;-66
2023/05/15 02:21:17;;;;;;;5.90;4.75;;;20.90;61.40;;;;;;5073571;28;20437;-66
2023/05/15 02:23:42;;;;;;;6.05;4.20;;;20.90;61.40;;;;;;5073421;28;20483;-67
2023/05/15 02:26:23;;;;;;;6.70;4.90;;;20.90;61.30;;;;;;5072724;28;20143;-67
2023/05/15 02:29:22;;;;;;;6.50;4.93;;;20.90;61.30;;;;;;5072795;28;20041;-66
2023/05/15 02:32:26;;;;;;;5.53;4.55;;;20.90;61.30;;;;;;5074334;28;20059;-66
2023/05/15 02:35:09;;;;;;;6.00;4.53;;;20.90;61.30;;;;;;5035689;28;20044;-67
2023/05/15 02:37:37;;;;;;;6.13;4.75;;;20.90;61.30;;;;;;5053349;28;20045;-66
2023/05/15 02:40:05;;;;;;;5.68;4.80;;;20.90;61.40;;;;;;5053168;28;20040;-66
2023/05/15 02:42:31;;;;;;;6.47;4.68;;;20.90;61.40;;;;;;5068876;28;20116;-66
2023/05/15 02:44:56;;;;;;;6.32;4.88;;;20.90;61.40;;;;;;5069571;28;20455;-66
2023/05/15 02:47:22;;;;;;;6.28;4.72;;;20.90;61.40;;;;;;5069389;28;20472;-66
2023/05/15 02:49:48;;;;;;;5.90;4.70;;;20.90;61.40;;;;;;5080076;28;20046;-66
2023/05/15 02:52:13;;;;;;;5.95;4.65;;;20.90;61.40;;;;;;5055834;28;20086;-66
2023/05/15 02:54:39;;;;;;;6.00;4.85;;;20.90;61.40;;;;;;5072494;28;20044;-66
2023/05/15 02:57:06;;;;;;;6.10;5.00;;;20.90;61.40;;;;;;5072288;28;20121;-66
2023/05/15 02:59:32;;;;;;;5.50;4.53;;;20.80;61.30;;;;;;5073685;28;20052;-66
2023/05/15 03:01:58;;;;;;;5.40;4.70;;;20.90;61.40;;;;;;5039466;28;20036;-66
2023/05/15 03:04:24;;;;;;;6.22;4.93;;;20.80;61.30;;;;;;5071739;28;20094;-67
2023/05/15 03:06:49;;;;;;;6.07;4.65;;;20.80;61.30;;;;;;5088786;28;20048;-66
2023/05/15 03:09:15;;;;;;;6.35;5.25;;;20.80;61.30;;;;;;5092419;28;20043;-66
2023/05/15 03:11:41;;;;;;;6.00;4.57;;;20.80;61.30;;;;;;5073067;28;20048;-66
2023/05/15 03:14:06;;;;;;;7.13;5.05;;;20.80;61.30;;;;;;5071446;28;20040;-66
2023/05/15 03:16:32;;;;;;;7.72;5.40;;;20.80;61.30;;;;;;5070235;28;20524;-66
2023/05/15 03:18:58;;;;;;;6.60;4.85;;;20.80;61.40;;;;;;5071446;28;20047;-66
2023/05/15 03:21:23;;;;;;;6.32;4.97;;;20.80;61.40;;;;;;5073423;28;20170;-66
2023/05/15 03:23:49;;;;;;;6.35;5.13;;;20.80;61.40;;;;;;5072046;28;20124;-66
2023/05/15 03:26:15;;;;;;;6.43;4.97;;;20.80;61.40;;;;;;5070571;28;20069;-66
2023/05/15 03:28:40;;;;;;;7.22;5.25;;;20.80;61.40;;;;;;5073653;28;20067;-66
2023/05/15 03:31:09;;;;;;;6.15;5.00;;;20.80;61.40;;;;;;5072102;28;20049;-66
2023/05/15 03:33:34;;;;;;;6.30;5.07;;;20.80;62.00;;;;;;5071907;28;20041;-66
2023/05/15 03:36:00;;;;;;;6.28;5.00;;;20.80;61.30;;;;;;5072147;28;20044;-66
2023/05/15 03:38:25;;;;;;;6.32;4.95;;;20.80;61.30;;;;;;5071104;28;20063;-66
2023/05/15 03:40:51;;;;;;;6.22;4.90;;;20.80;61.40;;;;;;5073029;28;20052;-66
2023/05/15 03:43:17;;;;;;;5.78;4.72;;;20.80;61.40;;;;;;5071913;28;20132;-66
2023/05/15 03:45:42;;;;;;;5.25;4.68;;;20.80;61.40;;;;;;5072222;28;20083;-66
2023/05/15 03:48:08;;;;;;;6.22;5.10;;;20.80;61.40;;;;;;5072982;28;20093;-67
2023/05/15 03:50:34;;;;;;;6.65;4.93;;;20.80;61.40;;;;;;5073114;28;20127;-66
2023/05/15 03:52:59;;;;;;;6.80;5.15;;;20.70;62.00;;;;;;5070566;28;20072;-66
2023/05/15 03:55:25;;;;;;;6.32;5.00;;;20.70;61.30;;;;;;5072359;28;20051;-67
2023/05/15 03:57:50;;;;;;;5.88;4.53;;;20.70;61.30;;;;;;5054887;28;20040;-66
2023/05/15 04:00:16;;;;;;;6.10;4.75;;;20.70;61.30;;;;;;5069646;28;20036;-66
2023/05/15 04:02:42;;;;;;;6.00;4.93;;;20.70;61.90;;;;;;5063880;28;20037;-66
2023/05/15 04:05:08;;;;;;;5.95;4.65;;;20.70;61.30;;;;;;5069809;28;20032;-66
2023/05/15 04:07:36;;;;;;;6.50;4.75;;;20.70;61.30;;;;;;5071669;28;20124;-66
2023/05/15 04:10:02;;;;;;;6.40;5.20;;;20.70;61.30;;;;;;5072057;28;20045;-66
2023/05/15 04:12:28;;;;;;;6.57;4.60;;;20.70;61.30;;;;;;5072303;28;20052;-66
2023/05/15 04:14:57;;;;;;;5.97;4.82;;;20.70;61.30;;;;;;5071989;28;20086;-66
2023/05/15 04:17:23;;;;;;;5.60;4.60;;;20.70;61.30;;;;;;5071202;28;20044;-66
2023/05/15 04:19:48;;;;;;;5.97;4.93;;;20.70;61.30;;;;;;5070974;28;20405;-66
2023/05/15 04:22:14;;;;;;;5.60;4.65;;;20.70;61.30;;;;;;5071481;28;20040;-66
2023/05/15 04:24:39;;;;;;;6.28;4.80;;;20.70;61.40;;;;;;5072358;28;20094;-66
2023/05/15 04:27:05;;;;;;;6.15;4.72;;;20.70;61.30;;;;;;5070902;28;20159;-66
2023/05/15 04:29:31;;;;;;;6.47;4.97;;;20.70;61.40;;;;;;5071212;28;20414;-66
2023/05/15 04:31:57;;;;;;;6.05;4.82;;;20.70;61.30;;;;;;5072143;28;20127;-66
2023/05/15 04:34:22;;;;;;;5.80;4.65;;;20.70;61.30;;;;;;5071632;28;20094;-66
2023/05/15 04:36:48;;;;;;;5.78;4.70;;;20.60;61.30;;;;;;5071649;28;20040;-66
2023/05/15 04:39:13;;;;;;;6.28;5.05;;;20.70;61.30;;;;;;5053714;28;20499;-66
2023/05/15 04:41:39;;;;;;;6.05;5.10;;;20.70;61.40;;;;;;5070005;28;20131;-66
2023/05/15 04:44:05;;;;;;;6.05;4.97;;;20.60;61.30;;;;;;5071160;28;20137;-66
2023/05/15 04:46:33;;;;;;;6.35;4.68;;;20.60;61.30;;;;;;5070866;28;20053;-66
2023/05/15 04:48:59;;;;;;;5.93;4.93;;;20.60;61.30;;;;;;5071750;28;20086;-66
2023/05/15 04:51:24;;;;;;;6.22;5.28;;;20.60;61.40;;;;;;5070458;28;20048;-66
2023/05/15 04:53:50;;;;;;;6.15;5.03;;;20.60;61.30;;;;;;5072138;28;20449;-66
2023/05/15 04:56:15;;;;;;;6.13;5.10;;;20.60;61.30;;;;;;5071189;28;20079;-66
2023/05/15 04:58:41;;;;;;;6.45;4.72;;;20.60;61.30;;;;;;5070739;28;20052;-66
2023/05/15 05:01:06;;;;;;;6.07;5.00;;;20.60;61.40;;;;;;5071867;28;20048;-66
2023/05/15 05:03:32;;;;;;;6.65;5.10;;;20.60;61.40;;;;;;5069846;28;20045;-66
2023/05/15 05:05:58;;;;;;;6.75;5.10;;;20.60;61.40;;;;;;5070334;28;20200;-66
2023/05/15 05:08:23;;;;;;;5.70;4.90;;;20.60;61.40;;;;;;5073124;28;20466;-66
2023/05/15 05:10:54;;;;;;;6.68;5.68;;;20.60;61.40;;;;;;5085413;28;20045;-66
2023/05/15 05:13:20;;;;;;;5.53;4.88;;;20.60;61.40;;;;;;5071447;28;20091;-66
2023/05/15 05:15:46;;;;;;;6.30;5.00;;;20.60;61.40;;;;;;5071870;28;20068;-66
2023/05/15 05:18:11;;;;;;;7.18;5.05;;;20.60;61.40;;;;;;5068494;28;20048;-66
2023/05/15 05:20:37;;;;;;;7.45;5.40;;;20.60;61.40;;;;;;5071811;28;20511;-66
2023/05/15 05:23:02;;;;;;;5.47;4.47;;;20.60;61.40;;;;;;5071835;28;20602;-66
2023/05/15 05:25:28;;;;;;;6.28;5.18;;;20.50;61.40;;;;;;5069084;28;20454;-66
2023/05/15 05:27:53;;;;;;;6.60;4.97;;;20.60;61.40;;;;;;5069587;28;20049;-67
2023/05/15 05:30:19;;;;;;;6.25;5.22;;;20.60;61.40;;;;;;5071407;28;20032;-67
2023/05/15 05:32:45;;;;;;;6.00;4.88;;;20.50;61.40;;;;;;5071237;28;20479;-66
2023/05/15 05:35:10;;;;;;;6.38;4.90;;;20.50;61.40;;;;;;5070107;28;20036;-68
2023/05/15 05:37:36;;;;;;;7.05;4.97;;;20.50;61.40;;;;;;5069510;28;20102;-75
2023/05/15 05:40:01;;;;;;;6.38;4.60;;;20.50;61.40;;;;;;5078002;28;20126;-66
2023/05/15 05:42:27;;;;;;;6.45;5.00;;;20.50;61.40;;;;;;5075668;28;20090;-66
2023/05/15 05:44:52;;;;;;;10.27;5.38;;;20.50;61.50;;;;;;5091373;28;20082;-73
2023/05/15 05:47:18;;;;;;;7.90;5.32;;;20.50;61.50;;;;;;5075316;28;20043;-66
2023/05/15 05:49:46;;;;;;;7.90;5.80;;;20.50;61.60;;;;;;5075117;28;20060;-66
2023/05/15 05:52:12;;;;;;;13.73;5.70;;;20.60;61.70;;;;;;5074163;28;20075;-67
2023/05/15 05:54:37;;;;;;;9.07;5.68;;;20.60;61.80;;;;;;5075265;28;20467;-67
2023/05/15 05:57:03;;;;;;;10.32;5.95;;;20.60;62.00;;;;;;5075034;28;20052;-67
2023/05/15 05:59:29;;;;;;;11.30;5.88;;;20.60;62.20;;;;;;5056224;28;20515;-66
2023/05/15 06:01:55;;;;;;;8.20;5.32;;;20.60;62.80;;;;;;5075054;28;20075;-67
2023/05/15 06:04:20;;;;;;;9.32;5.28;;;20.60;62.20;;;;;;5056482;28;20056;-66
2023/05/15 06:06:46;;;;;;;9.00;5.78;;;20.60;62.30;;;;;;5073879;28;20391;-66
2023/05/15 06:09:11;;;;;;;11.95;6.10;;;20.60;62.40;;;;;;5074044;28;20446;-67
2023/05/15 06:11:37;;;;;;;8.05;4.82;;;20.70;62.60;;;;;;5060728;28;20041;-68
2023/05/15 06:14:02;;;;;;;9.18;5.88;;;20.60;62.50;;;;;;5063670;28;20033;-68
2023/05/15 06:16:28;;;;;;;8.48;5.22;;;20.60;62.60;;;;;;5062855;28;20537;-67
2023/05/15 06:18:53;;;;;;;8.85;5.65;;;20.60;62.60;;;;;;5067141;28;20037;-68
2023/05/15 06:21:21;;;;;;;10.02;5.75;;;20.70;62.60;;;;;;5070487;28;20490;-68
2023/05/15 06:23:46;;;;;;;9.73;5.35;;;20.60;62.60;;;;;;5074872;28;20067;-67
2023/05/15 06:26:12;;;;;;;8.25;5.38;;;20.70;62.70;;;;;;5074184;28;20440;-69
2023/05/15 06:28:37;;;;;;;9.45;5.57;;;20.60;62.80;;;;;;5073354;28;20044;-68
2023/05/15 06:31:03;;;;;;;10.15;5.65;;;20.60;62.90;;;;;;5074850;28;20488;-67
2023/05/15 06:33:28;;;;;;;7.90;5.57;;;20.70;63.00;;;;;;5074213;28;20040;-67
2023/05/15 06:35:55;;;;;;;10.95;4.95;;;20.70;62.90;;;;;;5072633;28;20098;-68
2023/05/15 06:38:20;;;;;;;9.43;5.90;;;20.60;63.40;;;;;;5072656;28;20055;-67
2023/05/15 06:40:46;;;;;;;9.93;5.20;;;20.60;62.80;;;;;;5074128;28;20052;-65
2023/05/15 06:43:11;;;;;;;8.38;5.40;;;20.60;62.90;;;;;;5073478;28;20123;-74
2023/05/15 06:45:37;;;;;;;14.65;5.53;;;20.60;62.90;;;;;;5073296;28;20040;-68
2023/05/15 06:48:03;;;;;;;9.52;5.20;;;20.60;62.90;;;;;;5073764;28;20523;-67
2023/05/15 06:50:28;;;;;;;10.35;5.57;;;20.60;63.00;;;;;;5074202;28;20040;-67
2023/05/15 06:52:54;;;;;;;10.52;5.50;;;20.60;63.20;;;;;;5073045;28;20048;-70
2023/05/15 06:55:19;;;;;;;8.55;5.45;;;20.70;63.30;;;;;;5072421;28;20102;-70
2023/05/15 06:57:45;;;;;;;6.82;5.03;;;20.70;63.30;;;;;;5074696;28;20155;-69
2023/05/15 07:00:11;;;;;;;7.30;5.45;;;20.70;63.30;;;;;;5073487;28;20040;-70
2023/05/15 07:02:36;;;;;;;8.85;5.28;;;20.70;63.20;;;;;;5073773;28;20059;-70
2023/05/15 07:05:02;;;;;;;9.10;5.47;;;20.60;63.10;;;;;;5073187;28;20037;-69
2023/05/15 07:07:28;;;;;;;9.00;5.38;;;20.70;63.20;;;;;;5055702;28;20124;-71
2023/05/15 07:09:53;;;;;;;7.10;5.18;;;20.70;63.10;;;;;;5071378;28;20127;-71
2023/05/15 07:12:19;;;;;;;12.07;5.70;;;20.70;63.10;;;;;;5073622;28;20041;-80
2023/05/15 07:14:44;;;;;;;8.30;5.53;;;20.70;63.10;;;;;;5074171;28;20545;-71
2023/05/15 07:17:10;;;;;;;7.85;5.70;;;20.70;63.10;;;;;;5072953;28;20588;-71
2023/05/15 07:19:35;;;;;;;7.20;5.30;;;20.70;63.10;;;;;;5063583;28;20443;-71
2023/05/15 07:22:01;;;;;;;7.38;5.32;;;20.70;63.10;;;;;;5065249;28;20029;-70
2023/05/15 07:24:26;;;;;;;8.60;5.07;;;20.70;63.00;;;;;;5054766;28;20091;-71
2023/05/15 07:26:53;;;;;;;7.22;5.10;;;20.70;63.00;;;;;;5054883;28;20048;-70
2023/05/15 07:29:19;;;;;;;7.95;5.80;;;20.70;63.00;;;;;;5068392;28;20057;-71
2023/05/15 07:31:45;;;;;;;6.28;5.03;;;20.70;63.00;;;;;;5062560;28;20037;-71
2023/05/15 07:34:10;;;;;;;8.68;5.53;;;20.70;63.00;;;;;;5061067;28;20036;-71
2023/05/15 07:36:36;;;;;;;7.70;5.97;;;20.70;63.00;;;;;;5055853;28;20079;-71
2023/05/15 07:39:01;;;;;;;7.75;5.43;;;20.70;63.00;;;;;;5064140;28;20037;-70
2023/05/15 07:41:29;;;;;;;8.18;5.20;;;20.70;63.00;;;;;;5073094;28;20121;-70
2023/05/15 07:43:55;;;;;;;6.70;5.13;;;20.70;63.00;;;;;;5073140;28;20407;-70
2023/05/15 07:46:20;;;;;;;7.22;5.32;;;20.70;63.00;;;;;;5072482;28;20045;-70
2023/05/15 07:48:46;;;;;;;7.18;4.97;;;20.70;63.00;;;;;;5072111;28;20051;-70
2023/05/15 07:51:11;;;;;;;10.35;5.13;;;20.80;63.00;;;;;;5072589;28;20033;-70
2023/05/15 07:53:37;;;;;;;8.15;5.55;;;20.80;63.00;;;;;;5073331;28;20052;-70
2023/05/15 07:56:03;;;;;;;6.55;5.47;;;20.80;63.00;;;;;;5072881;28;20041;-71
2023/05/15 07:58:28;;;;;;;8.00;5.32;;;20.80;62.90;;;;;;5070656;28;20812;-70
2023/05/15 08:00:54;;;;;;;9.13;5.47;;;20.80;62.90;;;;;;5073097;28;20032;-69
2023/05/15 08:03:19;;;;;;;6.00;4.47;;;20.80;62.90;;;;;;5072663;28;20056;-70
2023/05/15 08:05:46;;;;;;;6.97;5.40;;;20.90;62.90;;;;;;5070965;28;20116;-69
2023/05/15 08:08:11;;;;;;;8.80;5.07;;;20.90;62.90;;;;;;5072565;28;20123;-70
2023/05/15 08:10:37;;;;;;;8.35;5.32;;;20.90;62.90;;;;;;5072817;28;20075;-70
2023/05/15 08:13:02;;;;;;;7.65;5.05;;;20.90;62.90;;;;;;5071737;28;20036;-70
2023/05/15 08:15:28;;;;;;;7.65;5.32;;;20.90;62.90;;;;;;5071103;28;20032;-70
2023/05/15 08:17:53;;;;;;;6.70;5.28;;;21.00;62.90;;;;;;5071816;28;20045;-71
2023/05/15 08:20:19;;;;;;;7.03;5.10;;;21.00;62.90;;;;;;5070617;28;20064;-70
2023/05/15 08:22:45;;;;;;;6.78;5.25;;;21.00;62.90;;;;;;5072979;28;20044;-71
2023/05/15 08:25:10;;;;;;;7.57;4.88;;;21.00;62.90;;;;;;5072270;28;20131;-70
2023/05/15 08:27:36;;;;;;;6.13;4.97;;;21.00;62.90;;;;;;5072437;28;20040;-73
2023/05/15 08:30:02;;;;;;;7.75;5.50;;;21.00;62.90;;;;;;5072976;28;20476;-71
2023/05/15 08:32:28;;;;;;;6.40;5.20;;;21.10;63.00;;;;;;5071046;28;20410;-71
2023/05/15 08:34:54;;;;;;;7.18;5.32;;;21.10;63.00;;;;;;5071180;28;20476;-70
2023/05/15 08:37:19;;;;;;;7.05;5.18;;;21.10;63.00;;;;;;5071027;28;20492;-70
2023/05/15 08:39:45;;;;;;;7.75;5.32;;;21.10;62.90;;;;;;5072810;28;20045;-70
2023/05/15 08:42:19;;;;;;;6.65;5.32;;;21.10;62.90;;;;;;5070569;28;20040;-71
2023/05/15 08:44:44;;;;;;;6.93;5.30;;;21.20;63.00;;;;;;5071590;28;20055;-71
2023/05/15 08:47:10;;;;;;;7.47;5.28;;;21.20;62.90;;;;;;5054314;28;20032;-71
2023/05/15 08:49:45;;;;;;;6.55;5.30;;;21.20;62.90;;;;;;5071850;28;20049;-71
2023/05/15 08:52:10;;;;;;;6.85;5.25;;;21.20;62.90;;;;;;5072356;28;20538;-70
2023/05/15 08:54:36;;;;;;;7.28;5.15;;;21.20;62.90;;;;;;5070623;28;20052;-71
2023/05/15 08:57:02;;;;;;;8.77;5.13;;;21.20;62.80;;;;;;5054802;28;20044;-71
2023/05/15 08:59:27;;;;;;;5.90;4.85;;;21.20;62.80;;;;;;5071313;28;20535;-71
2023/05/15 09:01:53;;;;;;;10.43;5.43;;;21.20;62.70;;;;;;5071762;28;20041;-72
2023/05/15 09:04:18;;;;;;;6.55;4.72;;;21.20;62.70;;;;;;5071186;28;20059;-71
2023/05/15 09:06:44;;;;;;;6.78;5.03;;;21.20;62.80;;;;;;5070283;28;20049;-71
2023/05/15 09:09:12;;;;;;;6.45;5.50;;;21.20;62.80;;;;;;5053597;28;20043;-71
2023/05/15 09:11:40;;;;;;;7.28;5.00;;;21.20;62.80;;;;;;5072293;28;20047;-71
2023/05/15 09:14:08;;;;;;;6.45;4.93;;;21.30;62.80;;;;;;5054753;28;20044;-71
2023/05/15 09:16:33;;;;;;;7.15;5.07;;;21.20;62.80;;;;;;5070268;28;20049;-72
2023/05/15 09:18:59;;;;;;;6.22;5.32;;;21.30;62.80;;;;;;5071219;28;20553;-71
2023/05/15 09:21:26;;;;;;;6.65;4.70;;;21.30;62.70;;;;;;5054126;28;20384;-72
2023/05/15 09:23:54;;;;;;;5.57;4.60;;;21.30;62.80;;;;;;5074631;28;20041;-70
2023/05/15 09:26:20;;;;;;;7.18;4.85;;;21.30;62.70;;;;;;5075890;28;20053;-71
2023/05/15 09:28:46;;;;;;;6.57;5.47;;;21.30;62.70;;;;;;5074896;28;20059;-71
2023/05/15 09:31:12;;;;;;;8.18;5.03;;;21.30;62.70;;;;;;5075269;28;20111;-70
2023/05/15 09:33:39;;;;;;;9.32;5.15;;;21.30;62.70;;;;;;5074893;28;20109;-71
2023/05/15 09:36:05;;;;;;;7.88;5.45;;;21.30;62.70;;;;;;5076234;28;20040;-71
2023/05/15 09:38:34;;;;;;;7.57;5.47;;;21.30;62.80;;;;;;5074429;28;20068;-71
2023/05/15 09:41:04;;;;;;;7.43;5.13;;;21.40;62.80;;;;;;5073911;28;20039;-71
2023/05/15 09:43:33;;;;;;;7.05;5.18;;;21.40;62.80;;;;;;5075662;28;20053;-71
2023/05/15 09:45:58;;;;;;;6.90;5.30;;;21.40;62.80;;;;;;5074959;28;20036;-71
2023/05/15 09:48:24;;;;;;;6.25;5.20;;;21.40;62.80;;;;;;5075690;28;20056;-71
2023/05/15 09:50:50;;;;;;;8.35;5.47;;;21.40;62.80;;;;;;5057408;28;20032;-70
2023/05/15 09:53:15;;;;;;;6.32;5.20;;;21.40;62.80;;;;;;5073172;28;20426;-71
2023/05/15 09:55:42;;;;;;;6.55;4.68;;;21.40;62.80;;;;;;5073387;28;20036;-68
2023/05/15 09:58:12;;;;;;;8.20;5.32;;;21.40;62.80;;;;;;5074612;28;20062;-70
2023/05/15 10:00:38;;;;;;;7.05;5.03;;;21.40;62.80;;;;;;5074969;28;20076;-76
2023/05/15 10:03:04;;;;;;;5.95;4.80;;;21.40;62.80;;;;;;5074506;28;20149;-66
2023/05/15 10:05:30;;;;;;;7.15;5.35;;;21.40;62.80;;;;;;5074560;28;20048;-68
2023/05/15 10:07:56;;;;;;;7.47;4.82;;;21.40;62.80;;;;;;5072505;28;20132;-77
2023/05/15 10:10:22;;;;;;;6.30;4.47;;;21.40;62.70;;;;;;5074820;28;20048;-67
2023/05/15 10:12:51;;;;;;;6.50;4.72;;;21.50;63.00;;;;;;5074086;28;20048;-66
2023/05/15 10:15:17;;;;;;;6.38;4.65;;;21.50;62.60;;;;;;5062404;28;20033;-67
2023/05/15 10:17:43;;;;;;;7.47;5.10;;;21.50;62.50;;;;;;5059326;28;20044;-67
2023/05/15 10:20:09;;;;;;;6.68;5.45;;;21.50;62.30;;;;;;5061384;28;20048;-68
2023/05/15 10:22:40;;;;;;;8.85;4.75;;;21.50;62.10;;;;;;5060902;28;20077;-67
2023/05/15 10:25:29;;;;;;;10.35;5.35;;;21.50;62.00;;;;;;5057987;28;20068;-68
2023/05/15 10:27:54;;;;;;;10.85;5.53;;;21.50;61.90;;;;;;5050109;28;20053;-66
2023/05/15 10:30:20;;;;;;;9.90;5.60;;;21.50;61.90;;;;;;5059904;28;20082;-66
2023/05/15 10:32:46;;;;;;;13.30;5.93;;;21.50;61.90;;;;;;5045511;28;20048;-66
2023/05/15 10:35:11;;;;;;;17.08;5.82;;;21.50;61.90;;;;;;5058466;28;20450;-67
2023/05/15 10:37:40;;;;;;;15.23;5.53;;;21.50;61.90;;;;;;5061468;28;20048;-66
2023/05/15 10:40:09;;;;;;;12.60;5.00;;;21.50;61.90;;;;;;5057600;28;20036;-66
2023/05/15 10:42:35;;;;;;;7.38;4.80;;;21.60;62.00;;;;;;5070279;28;20417;-67
2023/05/15 10:45:01;;;;;;;12.02;5.40;;;21.60;61.80;;;;;;5063379;28;20037;-66
2023/05/15 10:47:29;;;;;;;11.23;5.30;;;21.60;61.80;;;;;;5072753;28;20044;-67
2023/05/15 10:49:54;;;;;;;12.75;5.50;;;21.60;61.60;;;;;;5073033;28;20048;-68
2023/05/15 10:52:20;;;;;;;11.48;5.05;;;21.60;61.50;;;;;;5046955;28;20056;-67
2023/05/15 10:54:45;;;;;;;12.77;5.43;;;21.60;61.50;;;;;;5070756;28;20036;-66
2023/05/15 10:57:11;;;;;;;11.02;5.50;;;21.60;61.50;;;;;;5049747;28;20094;-66
2023/05/15 10:59:36;;;;;;;11.95;4.93;;;21.60;61.50;;;;;;5073523;28;20087;-66
2023/05/15 11:02:38;;;;;;;8.93;4.97;;;21.60;61.60;;;;;;5073129;28;20040;-66
2023/05/15 11:05:04;;;;;;;7.43;5.30;;;21.70;61.60;;;;;;5048318;28;20045;-65
2023/05/15 11:07:29;;;;;;;9.98;5.18;;;21.60;61.50;;;;;;5067825;28;20499;-65
2023/05/15 11:09:55;;;;;;;10.90;5.47;;;21.70;61.50;;;;;;5070279;28;20522;-65
2023/05/15 11:12:21;;;;;;;8.63;5.38;;;21.70;61.50;;;;;;5073652;28;20468;-65
2023/05/15 11:14:56;;;;;;;8.88;5.45;;;21.70;61.50;;;;;;5080939;28;20089;-65
2023/05/15 11:17:24;;;;;;;10.32;5.60;;;21.70;61.50;;;;;;5071487;28;20040;-65
2023/05/15 11:19:50;;;;;;;9.35;5.53;;;21.70;61.50;;;;;;5071454;28;20504;-65
2023/05/15 11:22:29;;;;;;;8.20;5.07;;;21.70;61.50;;;;;;5071638;28;20041;-66
2023/05/15 11:24:59;;;;;;;10.18;5.20;;;21.70;61.50;;;;;;5078828;28;20040;-66
2023/05/15 11:27:32;;;;;;;8.73;5.75;;;21.70;61.50;;;;;;5071701;28;20048;-65
2023/05/15 11:30:12;;;;;;;11.13;5.05;;;21.70;61.40;;;;;;5071358;28;20116;-65
2023/05/15 11:32:40;;;;;;;7.93;5.38;;;21.70;61.50;;;;;;5055657;28;20434;-65
2023/05/15 11:35:10;;;;;;;8.38;4.68;;;21.80;61.50;;;;;;5072091;28;20492;-67
2023/05/15 11:37:46;;;;;;;7.93;5.25;;;21.80;61.50;;;;;;5071633;28;20372;-69
2023/05/15 11:40:13;;;;;;;7.50;5.30;;;21.80;61.40;;;;;;5054627;28;20042;-69
2023/05/15 11:42:39;;;;;;;7.63;4.80;;;21.80;61.40;;;;;;5073585;28;20048;-70
2023/05/15 11:45:07;;;;;;;7.15;4.78;;;21.80;61.30;;;;;;5070931;28;20056;-68
2023/05/15 11:47:33;;;;;;;12.00;5.15;;;21.80;61.30;;;;;;5036587;28;20041;-69
2023/05/15 11:49:58;;;;;;;7.15;4.55;;;21.80;61.10;;;;;;5073228;28;20036;-69
2023/05/15 11:52:25;;;;;;;6.97;4.57;;;21.80;61.10;;;;;;5071729;28;20072;-69
2023/05/15 11:54:50;;;;;;;10.75;5.22;;;21.80;61.10;;;;;;5055145;28;20044;-69
2023/05/15 11:57:18;;;;;;;11.68;4.80;;;21.80;61.00;;;;;;5072797;28;20047;-68
2023/05/15 11:59:43;;;;;;;9.25;5.22;;;21.90;61.10;;;;;;5071636;28;20044;-68
2023/05/15 12:02:09;;;;;;;7.78;4.70;;;21.90;61.10;;;;;;5072325;28;20189;-70
2023/05/15 12:04:34;;;;;;;6.53;5.13;;;21.90;61.10;;;;;;5054618;28;20098;-70
2023/05/15 12:07:00;;;;;;;8.75;4.50;;;21.80;61.10;;;;;;5070581;28;20044;-70
2023/05/15 12:09:27;;;;;;;8.07;4.50;;;21.90;61.20;;;;;;5072862;28;20049;-70
2023/05/15 12:11:54;;;;;;;7.32;4.72;;;21.80;61.10;;;;;;5072360;28;20487;-70
2023/05/15 12:14:29;;;;;;;4.97;4.32;;;21.80;61.10;;;;;;5071689;28;20080;-70
2023/05/15 12:17:02;;;;;;;9.50;5.25;;;21.90;61.10;;;;;;5073132;28;20041;-72
2023/05/15 12:19:29;;;;;;;6.45;4.68;;;21.80;61.10;;;;;;5071975;28;20044;-70
2023/05/15 12:21:54;;;;;;;6.05;4.80;;;21.90;61.20;;;;;;5073020;28;20086;-70
2023/05/15 12:24:20;;;;;;;5.18;4.15;;;21.80;61.10;;;;;;5072456;28;20434;-70
2023/05/15 12:26:46;;;;;;;6.50;4.53;;;21.80;61.10;;;;;;5070754;28;20053;-70
2023/05/15 12:29:12;;;;;;;7.75;4.80;;;21.80;61.10;;;;;;5071648;28;20492;-70
2023/05/15 12:31:37;;;;;;;5.70;4.38;;;21.80;61.20;;;;;;5055189;28;20044;-70
2023/05/15 12:34:03;;;;;;;6.65;4.80;;;21.80;61.20;;;;;;5072031;28;20090;-70
2023/05/15 12:36:29;;;;;;;7.63;4.75;;;21.80;61.20;;;;;;5072509;28;20131;-70
2023/05/15 12:38:56;;;;;;;6.20;4.25;;;21.80;61.20;;;;;;5072603;28;20113;-70
2023/05/15 12:41:25;;;;;;;6.72;4.30;;;21.80;61.20;;;;;;5070710;28;20055;-70
2023/05/15 12:43:51;;;;;;;7.80;4.80;;;21.80;61.20;;;;;;5055273;28;20059;-70